sensor_id;sensor_type;location;lat;lon;timestamp;temperature;humidity
11736;DHT22;5924;51.398;7.088;2023-07-22T00:01:38;11.80;99.90
11736;DHT22;5924;51.398;7.088;2023-07-22T00:04:06;11.80;99.90
11736;DHT22;5924;51.398;7.088;2023-07-22T00:06:43;11.80;99.90
11736;DHT22;5924;51.398;7.088;2023-07-22T00:11:52;11.80;99.90
11736;DHT22;5924;51.398;7.088;2023-07-22T00:14:43;11.80;99.90
11736;DHT22;5924;51.398;7.088;2023-07-22T00:17:12;11.80;99.90
11736;DHT22;5924;51.398;7.088;2023-07-22T00:19:56;11.80;99.90
11736;DHT22;5924;51.398;7.088;2023-07-22T00:22:35;11.80;99.90
11736;DHT22;5924;51.398;7.088;2023-07-22T00:25:07;11.90;99.90
11736;DHT22;5924;51.398;7.088;2023-07-22T00:28:02;11.90;99.90
11736;DHT22;5924;51.398;7.088;2023-07-22T00:33:46;11.90;99.90
11736;DHT22;5924;51.398;7.088;2023-07-22T00:36:14;11.90;99.90
11736;DHT22;5924;51.398;7.088;2023-07-22T00:39:15;11.90;99.90
11736;DHT22;5924;51.398;7.088;2023-07-22T00:41:44;11.90;99.90
11736;DHT22;5924;51.398;7.088;2023-07-22T00:44:14;12.00;99.90
11736;DHT22;5924;51.398;7.088;2023-07-22T00:47:36;11.90;99.90
11736;DHT22;5924;51.398;7.088;2023-07-22T00:55:54;12.00;99.90
11736;DHT22;5924;51.398;7.088;2023-07-22T00:58:23;12.00;99.90
11736;DHT22;5924;51.398;7.088;2023-07-22T01:00:48;12.00;99.90
11736;DHT22;5924;51.398;7.088;2023-07-22T01:03:14;12.00;99.90
11736;DHT22;5924;51.398;7.088;2023-07-22T01:05:40;12.00;99.90
11736;DHT22;5924;51.398;7.088;2023-07-22T01:08:07;12.10;99.90
11736;DHT22;5924;51.398;7.088;2023-07-22T01:10:33;12.10;99.90
11736;DHT22;5924;51.398;7.088;2023-07-22T01:12:58;12.10;99.90
11736;DHT22;5924;51.398;7.088;2023-07-22T01:15:25;12.10;99.90
11736;DHT22;5924;51.398;7.088;2023-07-22T01:17:51;12.00;99.90
11736;DHT22;5924;51.398;7.088;2023-07-22T01:20:17;12.00;99.90
11736;DHT22;5924;51.398;7.088;2023-07-22T01:22:54;12.00;99.90
11736;DHT22;5924;51.398;7.088;2023-07-22T01:25:20;12.00;99.90
11736;DHT22;5924;51.398;7.088;2023-07-22T01:27:50;12.00;99.90
11736;DHT22;5924;51.398;7.088;2023-07-22T01:30:16;12.00;99.90
11736;DHT22;5924;51.398;7.088;2023-07-22T01:32:42;12.00;99.90
11736;DHT22;5924;51.398;7.088;2023-07-22T01:35:08;12.00;99.90
11736;DHT22;5924;51.398;7.088;2023-07-22T01:37:34;12.00;99.90
11736;DHT22;5924;51.398;7.088;2023-07-22T01:40:00;12.00;99.90
11736;DHT22;5924;51.398;7.088;2023-07-22T01:42:25;12.00;99.90
11736;DHT22;5924;51.398;7.088;2023-07-22T01:44:52;12.00;99.90
11736;DHT22;5924;51.398;7.088;2023-07-22T01:47:18;12.00;99.90
11736;DHT22;5924;51.398;7.088;2023-07-22T01:49:44;12.10;99.90
11736;DHT22;5924;51.398;7.088;2023-07-22T01:52:10;12.10;99.90
11736;DHT22;5924;51.398;7.088;2023-07-22T01:54:36;12.10;99.90
11736;DHT22;5924;51.398;7.088;2023-07-22T01:57:01;12.10;99.90
11736;DHT22;5924;51.398;7.088;2023-07-22T01:59:27;12.10;99.90
11736;DHT22;5924;51.398;7.088;2023-07-22T02:01:53;12.10;99.90
11736;DHT22;5924;51.398;7.088;2023-07-22T02:04:18;13.20;99.90
11736;DHT22;5924;51.398;7.088;2023-07-22T02:06:44;12.20;99.90
11736;DHT22;5924;51.398;7.088;2023-07-22T02:09:10;10.20;99.90
11736;DHT22;5924;51.398;7.088;2023-07-22T02:11:38;12.20;99.90
11736;DHT22;5924;51.398;7.088;2023-07-22T02:14:04;12.20;99.90
11736;DHT22;5924;51.398;7.088;2023-07-22T02:16:36;12.30;99.90
11736;DHT22;5924;51.398;7.088;2023-07-22T02:19:03;12.30;99.90
11736;DHT22;5924;51.398;7.088;2023-07-22T02:21:29;12.30;99.90
11736;DHT22;5924;51.398;7.088;2023-07-22T02:24:12;12.40;99.90
11736;DHT22;5924;51.398;7.088;2023-07-22T02:27:02;12.40;99.90
11736;DHT22;5924;51.398;7.088;2023-07-22T02:29:42;12.40;99.90
11736;DHT22;5924;51.398;7.088;2023-07-22T02:32:11;12.40;99.90
11736;DHT22;5924;51.398;7.088;2023-07-22T02:34:52;12.40;99.90
11736;DHT22;5924;51.398;7.088;2023-07-22T02:37:38;12.40;99.90
11736;DHT22;5924;51.398;7.088;2023-07-22T02:40:10;12.40;99.90
11736;DHT22;5924;51.398;7.088;2023-07-22T02:42:54;12.40;99.90
11736;DHT22;5924;51.398;7.088;2023-07-22T02:45:37;12.40;99.90
11736;DHT22;5924;51.398;7.088;2023-07-22T02:48:33;12.40;99.90
11736;DHT22;5924;51.398;7.088;2023-07-22T02:54:01;12.50;99.90
11736;DHT22;5924;51.398;7.088;2023-07-22T02:59:40;12.60;99.90
11736;DHT22;5924;51.398;7.088;2023-07-22T03:02:15;12.70;99.90
11736;DHT22;5924;51.398;7.088;2023-07-22T03:11:35;12.70;99.90
11736;DHT22;5924;51.398;7.088;2023-07-22T03:14:27;12.80;99.90
11736;DHT22;5924;51.398;7.088;2023-07-22T03:16:52;12.80;99.90
11736;DHT22;5924;51.398;7.088;2023-07-22T03:19:39;12.90;99.90
11736;DHT22;5924;51.398;7.088;2023-07-22T03:22:37;12.90;99.90
11736;DHT22;5924;51.398;7.088;2023-07-22T03:25:57;13.00;99.90
11736;DHT22;5924;51.398;7.088;2023-07-22T03:28:54;13.10;99.90
11736;DHT22;5924;51.398;7.088;2023-07-22T03:34:54;13.20;99.90
11736;DHT22;5924;51.398;7.088;2023-07-22T03:41:15;13.20;99.90
11736;DHT22;5924;51.398;7.088;2023-07-22T03:44:18;13.30;99.90
11736;DHT22;5924;51.398;7.088;2023-07-22T03:47:13;13.30;99.90
11736;DHT22;5924;51.398;7.088;2023-07-22T03:49:50;13.30;99.90
11736;DHT22;5924;51.398;7.088;2023-07-22T03:52:48;13.40;99.90
11736;DHT22;5924;51.398;7.088;2023-07-22T03:55:28;13.40;99.90
11736;DHT22;5924;51.398;7.088;2023-07-22T03:58:52;13.40;99.90
11736;DHT22;5924;51.398;7.088;2023-07-22T04:02:19;13.50;99.90
11736;DHT22;5924;51.398;7.088;2023-07-22T04:07:58;13.60;99.90
11736;DHT22;5924;51.398;7.088;2023-07-22T04:10:26;13.60;99.90
11736;DHT22;5924;51.398;7.088;2023-07-22T04:12:58;13.70;99.90
11736;DHT22;5924;51.398;7.088;2023-07-22T04:15:24;13.70;99.90
11736;DHT22;5924;51.398;7.088;2023-07-22T04:17:49;13.70;99.90
11736;DHT22;5924;51.398;7.088;2023-07-22T04:20:15;13.70;99.90
11736;DHT22;5924;51.398;7.088;2023-07-22T04:25:53;13.80;99.90
11736;DHT22;5924;51.398;7.088;2023-07-22T04:28:40;13.80;99.90
11736;DHT22;5924;51.398;7.088;2023-07-22T04:31:11;13.90;99.90
11736;DHT22;5924;51.398;7.088;2023-07-22T04:33:40;13.90;99.90
11736;DHT22;5924;51.398;7.088;2023-07-22T04:36:11;13.90;99.90
11736;DHT22;5924;51.398;7.088;2023-07-22T04:38:43;13.90;99.90
11736;DHT22;5924;51.398;7.088;2023-07-22T04:44:16;14.00;99.90
11736;DHT22;5924;51.398;7.088;2023-07-22T04:46:45;14.00;99.90
11736;DHT22;5924;51.398;7.088;2023-07-22T04:49:25;14.10;99.90
11736;DHT22;5924;51.398;7.088;2023-07-22T04:51:54;14.10;99.90
11736;DHT22;5924;51.398;7.088;2023-07-22T04:54:31;14.20;99.90
11736;DHT22;5924;51.398;7.088;2023-07-22T04:57:02;14.20;99.90
11736;DHT22;5924;51.398;7.088;2023-07-22T04:59:54;14.30;99.90
11736;DHT22;5924;51.398;7.088;2023-07-22T05:02:23;14.40;99.90
11736;DHT22;5924;51.398;7.088;2023-07-22T05:04:54;14.40;99.90
11736;DHT22;5924;51.398;7.088;2023-07-22T05:07:23;14.50;99.90
11736;DHT22;5924;51.398;7.088;2023-07-22T05:09:49;14.60;99.90
11736;DHT22;5924;51.398;7.088;2023-07-22T05:12:30;14.60;99.90
11736;DHT22;5924;51.398;7.088;2023-07-22T05:18:17;14.70;99.90
11736;DHT22;5924;51.398;7.088;2023-07-22T05:21:24;14.70;99.90
11736;DHT22;5924;51.398;7.088;2023-07-22T05:23:53;14.70;99.90
11736;DHT22;5924;51.398;7.088;2023-07-22T05:26:24;14.70;99.90
11736;DHT22;5924;51.398;7.088;2023-07-22T05:29:39;14.80;99.90
11736;DHT22;5924;51.398;7.088;2023-07-22T05:32:08;14.70;99.90
11736;DHT22;5924;51.398;7.088;2023-07-22T05:34:43;14.60;99.90
11736;DHT22;5924;51.398;7.088;2023-07-22T05:37:44;14.50;99.90
11736;DHT22;5924;51.398;7.088;2023-07-22T05:40:13;14.50;99.90
11736;DHT22;5924;51.398;7.088;2023-07-22T05:43:03;14.40;99.90
11736;DHT22;5924;51.398;7.088;2023-07-22T05:45:44;14.40;99.90
11736;DHT22;5924;51.398;7.088;2023-07-22T05:48:39;14.40;99.90
11736;DHT22;5924;51.398;7.088;2023-07-22T05:51:40;14.40;99.90
11736;DHT22;5924;51.398;7.088;2023-07-22T05:57:41;14.40;99.90
11736;DHT22;5924;51.398;7.088;2023-07-22T06:00:12;14.50;99.90
11736;DHT22;5924;51.398;7.088;2023-07-22T06:02:47;14.50;99.90
11736;DHT22;5924;51.398;7.088;2023-07-22T06:05:17;14.60;99.90
11736;DHT22;5924;51.398;7.088;2023-07-22T06:07:48;14.70;99.90
11736;DHT22;5924;51.398;7.088;2023-07-22T06:10:17;14.70;99.90
11736;DHT22;5924;51.398;7.088;2023-07-22T06:13:00;14.80;99.90
11736;DHT22;5924;51.398;7.088;2023-07-22T06:22:04;14.90;99.90
11736;DHT22;5924;51.398;7.088;2023-07-22T06:27:37;14.90;99.90
11736;DHT22;5924;51.398;7.088;2023-07-22T06:30:30;15.00;99.90
11736;DHT22;5924;51.398;7.088;2023-07-22T06:33:01;15.00;99.90
11736;DHT22;5924;51.398;7.088;2023-07-22T06:35:58;15.10;99.90
11736;DHT22;5924;51.398;7.088;2023-07-22T06:38:36;15.20;99.90
11736;DHT22;5924;51.398;7.088;2023-07-22T06:41:16;15.30;99.90
11736;DHT22;5924;51.398;7.088;2023-07-22T06:43:46;15.40;99.90
11736;DHT22;5924;51.398;7.088;2023-07-22T06:46:15;15.50;99.90
11736;DHT22;5924;51.398;7.088;2023-07-22T06:48:47;15.60;99.90
11736;DHT22;5924;51.398;7.088;2023-07-22T06:51:28;15.60;99.90
11736;DHT22;5924;51.398;7.088;2023-07-22T06:54:09;15.80;99.90
11736;DHT22;5924;51.398;7.088;2023-07-22T06:56:40;15.90;99.90
11736;DHT22;5924;51.398;7.088;2023-07-22T06:59:12;15.80;99.90
11736;DHT22;5924;51.398;7.088;2023-07-22T07:01:43;16.20;99.90
11736;DHT22;5924;51.398;7.088;2023-07-22T07:04:15;16.40;99.90
11736;DHT22;5924;51.398;7.088;2023-07-22T07:06:49;16.70;99.90
11736;DHT22;5924;51.398;7.088;2023-07-22T07:09:35;16.80;99.90
11736;DHT22;5924;51.398;7.088;2023-07-22T07:12:12;16.90;99.90
11736;DHT22;5924;51.398;7.088;2023-07-22T07:14:50;17.00;99.90
11736;DHT22;5924;51.398;7.088;2023-07-22T07:17:17;17.00;99.90
11736;DHT22;5924;51.398;7.088;2023-07-22T07:19:48;17.00;99.90
11736;DHT22;5924;51.398;7.088;2023-07-22T07:22:35;17.00;99.90
11736;DHT22;5924;51.398;7.088;2023-07-22T07:25:09;17.00;99.90
11736;DHT22;5924;51.398;7.088;2023-07-22T07:27:36;18.70;99.90
11736;DHT22;5924;51.398;7.088;2023-07-22T07:30:05;17.20;99.90
11736;DHT22;5924;51.398;7.088;2023-07-22T07:32:45;17.20;99.90
11736;DHT22;5924;51.398;7.088;2023-07-22T07:35:11;17.20;99.90
11736;DHT22;5924;51.398;7.088;2023-07-22T07:37:37;17.30;99.90
11736;DHT22;5924;51.398;7.088;2023-07-22T07:40:06;17.40;99.90
11736;DHT22;5924;51.398;7.088;2023-07-22T07:42:32;17.50;99.90
11736;DHT22;5924;51.398;7.088;2023-07-22T07:45:30;17.60;99.90
11736;DHT22;5924;51.398;7.088;2023-07-22T07:47:59;17.70;99.90
11736;DHT22;5924;51.398;7.088;2023-07-22T07:50:34;17.80;99.90
11736;DHT22;5924;51.398;7.088;2023-07-22T07:53:03;17.90;99.90
11736;DHT22;5924;51.398;7.088;2023-07-22T07:55:37;17.90;99.90
11736;DHT22;5924;51.398;7.088;2023-07-22T07:58:09;18.00;99.90
11736;DHT22;5924;51.398;7.088;2023-07-22T08:00:43;18.20;99.90
11736;DHT22;5924;51.398;7.088;2023-07-22T08:03:32;18.20;99.90
11736;DHT22;5924;51.398;7.088;2023-07-22T08:05:58;18.20;99.90
11736;DHT22;5924;51.398;7.088;2023-07-22T08:08:37;18.20;99.90
11736;DHT22;5924;51.398;7.088;2023-07-22T08:11:08;18.30;99.90
11736;DHT22;5924;51.398;7.088;2023-07-22T08:13:42;18.50;99.90
11736;DHT22;5924;51.398;7.088;2023-07-22T08:16:13;18.50;99.90
11736;DHT22;5924;51.398;7.088;2023-07-22T08:18:50;18.60;99.90
11736;DHT22;5924;51.398;7.088;2023-07-22T08:21:19;18.60;99.90
11736;DHT22;5924;51.398;7.088;2023-07-22T08:23:48;18.60;99.90
11736;DHT22;5924;51.398;7.088;2023-07-22T08:26:25;18.70;99.90
11736;DHT22;5924;51.398;7.088;2023-07-22T08:28:55;18.80;99.90
11736;DHT22;5924;51.398;7.088;2023-07-22T08:31:21;18.90;99.90
11736;DHT22;5924;51.398;7.088;2023-07-22T08:33:46;19.00;99.90
11736;DHT22;5924;51.398;7.088;2023-07-22T08:36:12;19.20;99.90
11736;DHT22;5924;51.398;7.088;2023-07-22T08:38:38;19.30;99.90
11736;DHT22;5924;51.398;7.088;2023-07-22T08:41:03;19.30;99.90
11736;DHT22;5924;51.398;7.088;2023-07-22T08:43:29;19.30;99.90
11736;DHT22;5924;51.398;7.088;2023-07-22T08:45:59;19.20;99.90
11736;DHT22;5924;51.398;7.088;2023-07-22T08:48:26;19.20;99.90
11736;DHT22;5924;51.398;7.088;2023-07-22T08:51:15;19.20;99.90
11736;DHT22;5924;51.398;7.088;2023-07-22T08:53:46;19.40;99.90
11736;DHT22;5924;51.398;7.088;2023-07-22T08:56:12;19.60;99.90
11736;DHT22;5924;51.398;7.088;2023-07-22T08:58:38;19.90;99.90
11736;DHT22;5924;51.398;7.088;2023-07-22T09:01:05;20.00;99.90
11736;DHT22;5924;51.398;7.088;2023-07-22T09:03:32;20.10;99.90
11736;DHT22;5924;51.398;7.088;2023-07-22T09:05:58;20.20;99.90
11736;DHT22;5924;51.398;7.088;2023-07-22T09:08:24;20.30;99.90
11736;DHT22;5924;51.398;7.088;2023-07-22T09:10:50;20.50;99.90
11736;DHT22;5924;51.398;7.088;2023-07-22T09:13:17;20.70;99.90
11736;DHT22;5924;51.398;7.088;2023-07-22T09:15:45;21.10;99.90
11736;DHT22;5924;51.398;7.088;2023-07-22T09:18:11;21.40;99.90
11736;DHT22;5924;51.398;7.088;2023-07-22T09:20:37;21.60;99.90
11736;DHT22;5924;51.398;7.088;2023-07-22T09:23:02;21.80;99.90
11736;DHT22;5924;51.398;7.088;2023-07-22T09:25:28;21.80;99.90
11736;DHT22;5924;51.398;7.088;2023-07-22T09:27:56;21.80;99.90
11736;DHT22;5924;51.398;7.088;2023-07-22T09:30:30;21.60;99.90
11736;DHT22;5924;51.398;7.088;2023-07-22T09:32:58;21.40;99.90
11736;DHT22;5924;51.398;7.088;2023-07-22T09:35:44;21.20;99.90
11736;DHT22;5924;51.398;7.088;2023-07-22T09:38:10;20.90;99.90
11736;DHT22;5924;51.398;7.088;2023-07-22T09:40:40;20.70;99.90
11736;DHT22;5924;51.398;7.088;2023-07-22T09:43:06;20.50;99.90
11736;DHT22;5924;51.398;7.088;2023-07-22T09:45:32;20.40;99.90
11736;DHT22;5924;51.398;7.088;2023-07-22T09:47:58;20.60;99.90
11736;DHT22;5924;51.398;7.088;2023-07-22T09:50:27;21.00;99.90
11736;DHT22;5924;51.398;7.088;2023-07-22T09:52:56;21.30;99.90
11736;DHT22;5924;51.398;7.088;2023-07-22T09:55:25;21.30;99.90
11736;DHT22;5924;51.398;7.088;2023-07-22T09:57:55;21.30;99.90
11736;DHT22;5924;51.398;7.088;2023-07-22T10:00:21;21.10;99.90
11736;DHT22;5924;51.398;7.088;2023-07-22T10:02:49;20.90;99.90
11736;DHT22;5924;51.398;7.088;2023-07-22T10:05:21;20.60;99.90
11736;DHT22;5924;51.398;7.088;2023-07-22T10:07:51;20.40;99.90
11736;DHT22;5924;51.398;7.088;2023-07-22T10:10:19;20.30;99.90
11736;DHT22;5924;51.398;7.088;2023-07-22T10:12:46;20.20;99.90
11736;DHT22;5924;51.398;7.088;2023-07-22T10:15:14;20.20;99.90
11736;DHT22;5924;51.398;7.088;2023-07-22T10:17:41;20.20;99.90
11736;DHT22;5924;51.398;7.088;2023-07-22T10:20:09;20.20;99.90
11736;DHT22;5924;51.398;7.088;2023-07-22T10:22:43;20.50;99.90
11736;DHT22;5924;51.398;7.088;2023-07-22T10:25:11;20.80;99.90
11736;DHT22;5924;51.398;7.088;2023-07-22T10:27:37;21.20;99.90
11736;DHT22;5924;51.398;7.088;2023-07-22T10:30:06;21.60;99.90
11736;DHT22;5924;51.398;7.088;2023-07-22T10:32:40;21.90;99.90
11736;DHT22;5924;51.398;7.088;2023-07-22T10:35:11;22.20;99.90
11736;DHT22;5924;51.398;7.088;2023-07-22T10:37:38;22.30;99.90
11736;DHT22;5924;51.398;7.088;2023-07-22T10:40:27;22.40;99.90
11736;DHT22;5924;51.398;7.088;2023-07-22T10:43:05;22.70;99.90
11736;DHT22;5924;51.398;7.088;2023-07-22T10:45:33;22.50;99.90
11736;DHT22;5924;51.398;7.088;2023-07-22T10:48:10;22.40;99.90
11736;DHT22;5924;51.398;7.088;2023-07-22T10:50:48;22.40;99.90
11736;DHT22;5924;51.398;7.088;2023-07-22T11:04:11;22.60;99.90
11736;DHT22;5924;51.398;7.088;2023-07-22T11:07:07;22.80;99.90
11736;DHT22;5924;51.398;7.088;2023-07-22T11:09:33;23.00;99.90
11736;DHT22;5924;51.398;7.088;2023-07-22T11:14:39;23.30;99.90
11736;DHT22;5924;51.398;7.088;2023-07-22T11:17:06;23.40;99.90
11736;DHT22;5924;51.398;7.088;2023-07-22T11:19:34;23.40;99.90
11736;DHT22;5924;51.398;7.088;2023-07-22T11:22:00;23.40;99.90
11736;DHT22;5924;51.398;7.088;2023-07-22T11:24:26;23.60;99.90
11736;DHT22;5924;51.398;7.088;2023-07-22T11:26:52;23.70;99.90
11736;DHT22;5924;51.398;7.088;2023-07-22T11:29:19;24.00;99.90
11736;DHT22;5924;51.398;7.088;2023-07-22T11:31:47;24.10;99.90
11736;DHT22;5924;51.398;7.088;2023-07-22T11:34:15;24.10;99.90
11736;DHT22;5924;51.398;7.088;2023-07-22T11:36:41;24.00;99.90
11736;DHT22;5924;51.398;7.088;2023-07-22T11:39:12;23.90;99.90
11736;DHT22;5924;51.398;7.088;2023-07-22T11:41:39;23.80;99.90
11736;DHT22;5924;51.398;7.088;2023-07-22T11:44:09;24.10;99.90
11736;DHT22;5924;51.398;7.088;2023-07-22T11:46:40;24.40;99.90
11736;DHT22;5924;51.398;7.088;2023-07-22T11:49:11;24.10;99.90
11736;DHT22;5924;51.398;7.088;2023-07-22T11:51:42;23.90;99.90
11736;DHT22;5924;51.398;7.088;2023-07-22T11:54:08;23.70;99.90
11736;DHT22;5924;51.398;7.088;2023-07-22T11:56:34;23.60;99.90
11736;DHT22;5924;51.398;7.088;2023-07-22T11:59:00;23.60;99.90
11736;DHT22;5924;51.398;7.088;2023-07-22T12:01:32;23.60;99.90
11736;DHT22;5924;51.398;7.088;2023-07-22T12:03:58;23.50;99.90
11736;DHT22;5924;51.398;7.088;2023-07-22T12:06:27;23.40;99.90
11736;DHT22;5924;51.398;7.088;2023-07-22T12:08:53;23.60;99.90
11736;DHT22;5924;51.398;7.088;2023-07-22T12:11:23;23.80;99.90
11736;DHT22;5924;51.398;7.088;2023-07-22T12:14:07;23.90;99.90
11736;DHT22;5924;51.398;7.088;2023-07-22T12:16:35;24.20;99.90
11736;DHT22;5924;51.398;7.088;2023-07-22T12:19:02;24.20;99.90
11736;DHT22;5924;51.398;7.088;2023-07-22T12:21:28;24.10;99.90
11736;DHT22;5924;51.398;7.088;2023-07-22T12:23:54;24.40;99.90
11736;DHT22;5924;51.398;7.088;2023-07-22T12:26:20;24.60;99.90
11736;DHT22;5924;51.398;7.088;2023-07-22T12:28:45;25.00;99.80
11736;DHT22;5924;51.398;7.088;2023-07-22T12:31:11;25.30;99.50
11736;DHT22;5924;51.398;7.088;2023-07-22T12:33:37;25.50;99.00
11736;DHT22;5924;51.398;7.088;2023-07-22T12:36:03;25.90;98.00
11736;DHT22;5924;51.398;7.088;2023-07-22T12:38:28;25.80;95.40
11736;DHT22;5924;51.398;7.088;2023-07-22T12:40:54;25.30;96.80
11736;DHT22;5924;51.398;7.088;2023-07-22T12:43:20;25.20;95.60
11736;DHT22;5924;51.398;7.088;2023-07-22T12:45:45;25.40;95.90
11736;DHT22;5924;51.398;7.088;2023-07-22T12:48:11;26.00;96.80
11736;DHT22;5924;51.398;7.088;2023-07-22T12:50:37;26.30;94.70
11736;DHT22;5924;51.398;7.088;2023-07-22T12:53:02;26.60;94.50
11736;DHT22;5924;51.398;7.088;2023-07-22T12:55:29;26.20;93.60
11736;DHT22;5924;51.398;7.088;2023-07-22T12:57:54;25.80;93.70
11736;DHT22;5924;51.398;7.088;2023-07-22T13:00:20;25.60;95.70
11736;DHT22;5924;51.398;7.088;2023-07-22T13:02:47;26.10;95.30
11736;DHT22;5924;51.398;7.088;2023-07-22T13:05:12;26.70;95.50
11736;DHT22;5924;51.398;7.088;2023-07-22T13:07:39;27.70;95.10
11736;DHT22;5924;51.398;7.088;2023-07-22T13:10:05;28.70;91.10
11736;DHT22;5924;51.398;7.088;2023-07-22T13:12:34;28.80;91.60
11736;DHT22;5924;51.398;7.088;2023-07-22T13:15:00;28.50;90.60
11736;DHT22;5924;51.398;7.088;2023-07-22T13:17:25;28.20;90.00
11736;DHT22;5924;51.398;7.088;2023-07-22T13:19:51;27.60;89.60
11736;DHT22;5924;51.398;7.088;2023-07-22T13:22:17;27.20;90.40
11736;DHT22;5924;51.398;7.088;2023-07-22T13:24:43;26.80;88.70
11736;DHT22;5924;51.398;7.088;2023-07-22T13:27:08;26.90;90.40
11736;DHT22;5924;51.398;7.088;2023-07-22T13:29:34;27.70;88.10
11736;DHT22;5924;51.398;7.088;2023-07-22T13:32:00;27.80;87.40
11736;DHT22;5924;51.398;7.088;2023-07-22T13:34:25;27.20;86.40
11736;DHT22;5924;51.398;7.088;2023-07-22T13:36:51;26.80;90.00
11736;DHT22;5924;51.398;7.088;2023-07-22T13:39:17;26.70;89.80
11736;DHT22;5924;51.398;7.088;2023-07-22T13:41:42;26.50;88.40
11736;DHT22;5924;51.398;7.088;2023-07-22T13:44:08;26.00;90.00
11736;DHT22;5924;51.398;7.088;2023-07-22T13:46:34;25.70;90.90
11736;DHT22;5924;51.398;7.088;2023-07-22T13:48:59;25.80;90.80
11736;DHT22;5924;51.398;7.088;2023-07-22T13:51:25;25.90;92.60
11736;DHT22;5924;51.398;7.088;2023-07-22T13:53:50;26.10;91.40
11736;DHT22;5924;51.398;7.088;2023-07-22T13:56:20;25.90;90.00
11736;DHT22;5924;51.398;7.088;2023-07-22T13:58:46;25.70;91.20
11736;DHT22;5924;51.398;7.088;2023-07-22T14:01:12;25.60;91.90
11736;DHT22;5924;51.398;7.088;2023-07-22T14:03:38;25.60;91.60
11736;DHT22;5924;51.398;7.088;2023-07-22T14:06:04;25.50;91.70
11736;DHT22;5924;51.398;7.088;2023-07-22T14:08:30;25.40;88.90
11736;DHT22;5924;51.398;7.088;2023-07-22T14:10:55;25.70;89.70
11736;DHT22;5924;51.398;7.088;2023-07-22T14:13:21;26.00;87.40
11736;DHT22;5924;51.398;7.088;2023-07-22T14:15:47;26.10;81.90
11736;DHT22;5924;51.398;7.088;2023-07-22T14:18:12;26.20;83.40
11736;DHT22;5924;51.398;7.088;2023-07-22T14:20:43;26.40;81.60
11736;DHT22;5924;51.398;7.088;2023-07-22T14:23:08;27.10;84.60
11736;DHT22;5924;51.398;7.088;2023-07-22T14:25:34;28.10;79.80
11736;DHT22;5924;51.398;7.088;2023-07-22T14:28:00;28.20;76.10
11736;DHT22;5924;51.398;7.088;2023-07-22T14:30:25;27.90;76.90
11736;DHT22;5924;51.398;7.088;2023-07-22T14:32:51;28.20;80.90
11736;DHT22;5924;51.398;7.088;2023-07-22T14:35:17;28.20;78.00
11736;DHT22;5924;51.398;7.088;2023-07-22T14:37:42;28.20;77.10
11736;DHT22;5924;51.398;7.088;2023-07-22T14:40:08;28.70;76.50
11736;DHT22;5924;51.398;7.088;2023-07-22T14:42:34;29.10;73.70
11736;DHT22;5924;51.398;7.088;2023-07-22T14:45:00;29.00;70.20
11736;DHT22;5924;51.398;7.088;2023-07-22T14:47:25;28.70;73.10
11736;DHT22;5924;51.398;7.088;2023-07-22T14:49:51;28.40;71.90
11736;DHT22;5924;51.398;7.088;2023-07-22T14:52:17;28.60;71.60
11736;DHT22;5924;51.398;7.088;2023-07-22T14:54:43;28.90;72.10
11736;DHT22;5924;51.398;7.088;2023-07-22T14:57:09;29.60;72.70
11736;DHT22;5924;51.398;7.088;2023-07-22T14:59:35;28.90;68.80
11736;DHT22;5924;51.398;7.088;2023-07-22T15:02:00;28.30;70.40
11736;DHT22;5924;51.398;7.088;2023-07-22T15:04:26;27.80;72.60
11736;DHT22;5924;51.398;7.088;2023-07-22T15:06:51;27.80;74.20
11736;DHT22;5924;51.398;7.088;2023-07-22T15:09:17;27.60;74.20
11736;DHT22;5924;51.398;7.088;2023-07-22T15:11:43;27.10;74.10
11736;DHT22;5924;51.398;7.088;2023-07-22T15:14:09;26.50;73.90
11736;DHT22;5924;51.398;7.088;2023-07-22T15:16:35;26.20;74.90
11736;DHT22;5924;51.398;7.088;2023-07-22T15:19:00;26.10;79.60
11736;DHT22;5924;51.398;7.088;2023-07-22T15:21:26;25.40;76.40
11736;DHT22;5924;51.398;7.088;2023-07-22T15:23:52;25.90;78.10
11736;DHT22;5924;51.398;7.088;2023-07-22T15:26:17;25.70;77.40
11736;DHT22;5924;51.398;7.088;2023-07-22T15:28:43;25.90;80.20
11736;DHT22;5924;51.398;7.088;2023-07-22T15:31:08;26.10;77.30
11736;DHT22;5924;51.398;7.088;2023-07-22T15:33:35;26.00;75.30
11736;DHT22;5924;51.398;7.088;2023-07-22T15:36:01;25.60;79.30
11736;DHT22;5924;51.398;7.088;2023-07-22T15:38:27;25.80;81.70
11736;DHT22;5924;51.398;7.088;2023-07-22T15:40:53;26.10;80.10
11736;DHT22;5924;51.398;7.088;2023-07-22T15:43:19;26.00;78.50
11736;DHT22;5924;51.398;7.088;2023-07-22T15:45:45;25.50;78.70
11736;DHT22;5924;51.398;7.088;2023-07-22T15:48:10;25.10;80.70
11736;DHT22;5924;51.398;7.088;2023-07-22T15:50:36;25.30;81.00
11736;DHT22;5924;51.398;7.088;2023-07-22T15:53:02;26.10;79.90
11736;DHT22;5924;51.398;7.088;2023-07-22T15:55:27;26.60;76.10
11736;DHT22;5924;51.398;7.088;2023-07-22T15:57:53;26.70;79.40
11736;DHT22;5924;51.398;7.088;2023-07-22T16:00:19;27.10;76.70
11736;DHT22;5924;51.398;7.088;2023-07-22T16:02:44;27.20;74.60
11736;DHT22;5924;51.398;7.088;2023-07-22T16:05:10;26.90;76.60
11736;DHT22;5924;51.398;7.088;2023-07-22T16:07:39;26.50;76.90
11736;DHT22;5924;51.398;7.088;2023-07-22T16:10:06;25.80;77.60
11736;DHT22;5924;51.398;7.088;2023-07-22T16:12:32;25.50;78.60
11736;DHT22;5924;51.398;7.088;2023-07-22T16:14:57;25.10;78.90
11736;DHT22;5924;51.398;7.088;2023-07-22T16:17:24;24.70;80.00
11736;DHT22;5924;51.398;7.088;2023-07-22T16:19:49;24.30;81.60
11736;DHT22;5924;51.398;7.088;2023-07-22T16:22:15;24.10;83.60
11736;DHT22;5924;51.398;7.088;2023-07-22T16:24:41;24.10;82.60
11736;DHT22;5924;51.398;7.088;2023-07-22T16:27:06;24.50;81.50
11736;DHT22;5924;51.398;7.088;2023-07-22T16:29:32;24.70;81.00
11736;DHT22;5924;51.398;7.088;2023-07-22T16:32:00;24.70;82.70
11736;DHT22;5924;51.398;7.088;2023-07-22T16:34:25;24.60;82.50
11736;DHT22;5924;51.398;7.088;2023-07-22T16:36:51;24.40;84.20
11736;DHT22;5924;51.398;7.088;2023-07-22T16:39:17;24.30;83.30
11736;DHT22;5924;51.398;7.088;2023-07-22T16:41:42;24.10;81.70
11736;DHT22;5924;51.398;7.088;2023-07-22T16:44:08;23.80;84.30
11736;DHT22;5924;51.398;7.088;2023-07-22T16:46:34;23.60;84.80
11736;DHT22;5924;51.398;7.088;2023-07-22T16:49:00;23.40;84.20
11736;DHT22;5924;51.398;7.088;2023-07-22T16:51:25;23.20;85.70
11736;DHT22;5924;51.398;7.088;2023-07-22T16:53:52;23.20;85.30
11736;DHT22;5924;51.398;7.088;2023-07-22T16:56:18;23.10;85.40
11736;DHT22;5924;51.398;7.088;2023-07-22T17:01:23;23.10;88.40
11736;DHT22;5924;51.398;7.088;2023-07-22T17:03:49;23.10;89.70
11736;DHT22;5924;51.398;7.088;2023-07-22T17:06:14;23.10;89.50
11736;DHT22;5924;51.398;7.088;2023-07-22T17:08:40;23.10;88.90
11736;DHT22;5924;51.398;7.088;2023-07-22T17:11:06;23.20;89.50
11736;DHT22;5924;51.398;7.088;2023-07-22T17:13:31;23.20;88.60
11736;DHT22;5924;51.398;7.088;2023-07-22T17:15:57;23.00;87.00
11736;DHT22;5924;51.398;7.088;2023-07-22T17:18:22;22.90;88.10
11736;DHT22;5924;51.398;7.088;2023-07-22T17:20:48;22.80;88.40
11736;DHT22;5924;51.398;7.088;2023-07-22T17:23:14;22.70;89.10